RJAW/IWO METAR and TAF weather

Enter ICAO airport designator
Station Type Date Time Source
RJAW METAR 2019/02/20 07:00 UTC NOAA

RJAW 200700Z 31008KT 280V340 9999 SCT020 24/18 Q1020 RMK 3CU020 A3013


Station Type Date Time Source
RJAW Decoded METAR 2019/02/20 07:00 UTC NOAA

Iwojima, Japan (RJAW) 24-47N 141-19E 116M
Feb 20, 2019 - 02:00 AM EST / 2019.02.20 0700 UTC
Wind: from the NW (310 degrees) at 9 MPH (8 KT) (direction variable):0
Visibility: greater than 7 mile(s):0
Sky conditions: partly cloudy
Temperature: 75 F (24 C)
Dew Point: 64 F (18 C)
Relative Humidity: 69%
Pressure (altimeter): 30.12 in. Hg (1020 hPa)
ob: RJAW 200700Z 31008KT 280V340 9999 SCT020 24/18 Q1020 RMK 3CU020 A3013
cycle: 7

Station Type Date Time Source
RJAW TAF UTC NOAA

Error!


Example: see airport list